sensor_id;sensor_type;location;lat;lon;timestamp;P1;durP1;ratioP1;P2;durP2;ratioP2
48363;SDS011;34170;54.364;18.582;2023-09-30T00:01:08;9.55;;;6.70;;
48363;SDS011;34170;54.364;18.582;2023-09-30T00:03:37;9.93;;;7.00;;
48363;SDS011;34170;54.364;18.582;2023-09-30T00:06:05;10.48;;;6.13;;
48363;SDS011;34170;54.364;18.582;2023-09-30T00:08:32;11.85;;;6.78;;
48363;SDS011;34170;54.364;18.582;2023-09-30T00:11:00;12.13;;;7.03;;
48363;SDS011;34170;54.364;18.582;2023-09-30T00:13:28;11.50;;;7.38;;
48363;SDS011;34170;54.364;18.582;2023-09-30T00:15:55;10.10;;;6.63;;
48363;SDS011;34170;54.364;18.582;2023-09-30T00:18:23;10.00;;;7.65;;
48363;SDS011;34170;54.364;18.582;2023-09-30T00:20:51;11.57;;;8.02;;
48363;SDS011;34170;54.364;18.582;2023-09-30T00:23:18;12.40;;;7.65;;
48363;SDS011;34170;54.364;18.582;2023-09-30T00:25:48;11.07;;;7.38;;
48363;SDS011;34170;54.364;18.582;2023-09-30T00:28:17;9.30;;;7.68;;
48363;SDS011;34170;54.364;18.582;2023-09-30T00:30:45;9.63;;;8.25;;
48363;SDS011;34170;54.364;18.582;2023-09-30T00:33:15;13.88;;;8.50;;
48363;SDS011;34170;54.364;18.582;2023-09-30T00:35:42;8.90;;;7.40;;
48363;SDS011;34170;54.364;18.582;2023-09-30T00:38:10;13.25;;;7.55;;
48363;SDS011;34170;54.364;18.582;2023-09-30T00:40:38;10.68;;;8.02;;
48363;SDS011;34170;54.364;18.582;2023-09-30T00:43:05;11.48;;;8.50;;
48363;SDS011;34170;54.364;18.582;2023-09-30T00:45:33;10.25;;;7.88;;
48363;SDS011;34170;54.364;18.582;2023-09-30T00:48:01;12.35;;;8.25;;
48363;SDS011;34170;54.364;18.582;2023-09-30T00:50:31;12.07;;;8.40;;
48363;SDS011;34170;54.364;18.582;2023-09-30T00:52:59;13.10;;;8.98;;
48363;SDS011;34170;54.364;18.582;2023-09-30T00:55:26;10.80;;;8.07;;
48363;SDS011;34170;54.364;18.582;2023-09-30T00:57:54;11.73;;;8.65;;
48363;SDS011;34170;54.364;18.582;2023-09-30T01:00:22;10.98;;;8.48;;
48363;SDS011;34170;54.364;18.582;2023-09-30T01:02:52;11.27;;;8.25;;
48363;SDS011;34170;54.364;18.582;2023-09-30T01:05:24;11.82;;;8.45;;
48363;SDS011;34170;54.364;18.582;2023-09-30T01:07:51;11.10;;;8.98;;
48363;SDS011;34170;54.364;18.582;2023-09-30T01:10:19;13.20;;;9.18;;
48363;SDS011;34170;54.364;18.582;2023-09-30T01:12:47;11.27;;;8.20;;
48363;SDS011;34170;54.364;18.582;2023-09-30T01:15:15;13.35;;;9.73;;
48363;SDS011;34170;54.364;18.582;2023-09-30T01:17:42;13.50;;;8.98;;
48363;SDS011;34170;54.364;18.582;2023-09-30T01:20:10;12.27;;;9.63;;
48363;SDS011;34170;54.364;18.582;2023-09-30T01:22:43;11.32;;;9.15;;
48363;SDS011;34170;54.364;18.582;2023-09-30T01:25:12;13.50;;;8.88;;
48363;SDS011;34170;54.364;18.582;2023-09-30T01:27:40;13.23;;;8.98;;
48363;SDS011;34170;54.364;18.582;2023-09-30T01:30:08;13.60;;;10.07;;
48363;SDS011;34170;54.364;18.582;2023-09-30T01:32:38;13.32;;;9.00;;
48363;SDS011;34170;54.364;18.582;2023-09-30T01:35:06;13.93;;;9.43;;
48363;SDS011;34170;54.364;18.582;2023-09-30T01:37:34;13.10;;;9.70;;
48363;SDS011;34170;54.364;18.582;2023-09-30T01:40:03;14.00;;;9.70;;
48363;SDS011;34170;54.364;18.582;2023-09-30T01:42:31;13.48;;;9.02;;
48363;SDS011;34170;54.364;18.582;2023-09-30T01:45:00;12.85;;;9.65;;
48363;SDS011;34170;54.364;18.582;2023-09-30T01:47:28;13.32;;;9.52;;
48363;SDS011;34170;54.364;18.582;2023-09-30T01:49:55;11.20;;;9.23;;
48363;SDS011;34170;54.364;18.582;2023-09-30T01:52:23;13.15;;;10.27;;
48363;SDS011;34170;54.364;18.582;2023-09-30T01:54:50;16.08;;;10.77;;
48363;SDS011;34170;54.364;18.582;2023-09-30T01:57:19;15.45;;;10.05;;
48363;SDS011;34170;54.364;18.582;2023-09-30T01:59:46;16.67;;;10.75;;
48363;SDS011;34170;54.364;18.582;2023-09-30T02:02:14;12.50;;;9.75;;
48363;SDS011;34170;54.364;18.582;2023-09-30T02:04:43;16.48;;;9.70;;
48363;SDS011;34170;54.364;18.582;2023-09-30T02:07:11;14.63;;;9.98;;
48363;SDS011;34170;54.364;18.582;2023-09-30T02:09:38;14.02;;;10.05;;
48363;SDS011;34170;54.364;18.582;2023-09-30T02:12:06;16.25;;;10.98;;
48363;SDS011;34170;54.364;18.582;2023-09-30T02:14:37;14.35;;;10.68;;
48363;SDS011;34170;54.364;18.582;2023-09-30T02:17:06;16.27;;;10.30;;
48363;SDS011;34170;54.364;18.582;2023-09-30T02:19:33;19.05;;;11.88;;
48363;SDS011;34170;54.364;18.582;2023-09-30T02:22:01;19.50;;;12.25;;
48363;SDS011;34170;54.364;18.582;2023-09-30T02:24:29;15.82;;;11.48;;
48363;SDS011;34170;54.364;18.582;2023-09-30T02:26:57;19.10;;;13.25;;
48363;SDS011;34170;54.364;18.582;2023-09-30T02:29:25;15.90;;;12.00;;
48363;SDS011;34170;54.364;18.582;2023-09-30T02:31:53;16.98;;;13.82;;
48363;SDS011;34170;54.364;18.582;2023-09-30T02:34:21;16.67;;;13.55;;
48363;SDS011;34170;54.364;18.582;2023-09-30T02:36:49;19.52;;;13.60;;
48363;SDS011;34170;54.364;18.582;2023-09-30T02:39:18;17.88;;;12.73;;
48363;SDS011;34170;54.364;18.582;2023-09-30T02:41:47;21.45;;;13.57;;
48363;SDS011;34170;54.364;18.582;2023-09-30T02:44:17;17.38;;;12.35;;
48363;SDS011;34170;54.364;18.582;2023-09-30T02:46:44;20.08;;;12.95;;
48363;SDS011;34170;54.364;18.582;2023-09-30T02:49:12;16.42;;;13.40;;
48363;SDS011;34170;54.364;18.582;2023-09-30T02:51:40;16.70;;;13.57;;
48363;SDS011;34170;54.364;18.582;2023-09-30T02:54:07;21.13;;;13.60;;
48363;SDS011;34170;54.364;18.582;2023-09-30T02:56:35;16.50;;;12.07;;
48363;SDS011;34170;54.364;18.582;2023-09-30T02:59:04;17.95;;;13.30;;
48363;SDS011;34170;54.364;18.582;2023-09-30T03:01:32;19.35;;;13.70;;
48363;SDS011;34170;54.364;18.582;2023-09-30T03:03:59;20.40;;;13.43;;
48363;SDS011;34170;54.364;18.582;2023-09-30T03:06:28;19.27;;;13.32;;
48363;SDS011;34170;54.364;18.582;2023-09-30T03:08:55;17.98;;;12.93;;
48363;SDS011;34170;54.364;18.582;2023-09-30T03:11:23;21.83;;;12.32;;
48363;SDS011;34170;54.364;18.582;2023-09-30T03:13:50;16.70;;;12.52;;
48363;SDS011;34170;54.364;18.582;2023-09-30T03:16:18;16.40;;;12.00;;
48363;SDS011;34170;54.364;18.582;2023-09-30T03:18:47;17.08;;;12.93;;
48363;SDS011;34170;54.364;18.582;2023-09-30T03:21:16;17.13;;;11.73;;
48363;SDS011;34170;54.364;18.582;2023-09-30T03:23:44;12.75;;;10.23;;
48363;SDS011;34170;54.364;18.582;2023-09-30T03:26:12;16.92;;;11.75;;
48363;SDS011;34170;54.364;18.582;2023-09-30T03:28:40;15.23;;;11.80;;
48363;SDS011;34170;54.364;18.582;2023-09-30T03:31:08;16.58;;;10.75;;
48363;SDS011;34170;54.364;18.582;2023-09-30T03:33:35;21.75;;;11.48;;
48363;SDS011;34170;54.364;18.582;2023-09-30T03:36:03;14.52;;;10.48;;
48363;SDS011;34170;54.364;18.582;2023-09-30T03:38:30;15.95;;;10.00;;
48363;SDS011;34170;54.364;18.582;2023-09-30T03:40:59;14.65;;;9.38;;
48363;SDS011;34170;54.364;18.582;2023-09-30T03:43:27;14.13;;;10.13;;
48363;SDS011;34170;54.364;18.582;2023-09-30T03:45:54;10.55;;;7.05;;
48363;SDS011;34170;54.364;18.582;2023-09-30T03:48:24;9.02;;;5.63;;
48363;SDS011;34170;54.364;18.582;2023-09-30T03:50:52;10.20;;;4.53;;
48363;SDS011;34170;54.364;18.582;2023-09-30T03:53:20;7.32;;;3.45;;
48363;SDS011;34170;54.364;18.582;2023-09-30T03:55:48;6.03;;;2.80;;
48363;SDS011;34170;54.364;18.582;2023-09-30T03:58:15;5.55;;;2.13;;
48363;SDS011;34170;54.364;18.582;2023-09-30T04:00:45;6.65;;;1.90;;
48363;SDS011;34170;54.364;18.582;2023-09-30T04:03:12;6.50;;;1.80;;
48363;SDS011;34170;54.364;18.582;2023-09-30T04:05:40;5.03;;;1.70;;
48363;SDS011;34170;54.364;18.582;2023-09-30T04:08:08;3.65;;;1.30;;
48363;SDS011;34170;54.364;18.582;2023-09-30T04:10:36;3.85;;;1.35;;
48363;SDS011;34170;54.364;18.582;2023-09-30T04:13:03;3.60;;;1.50;;
48363;SDS011;34170;54.364;18.582;2023-09-30T04:15:31;4.68;;;1.60;;
48363;SDS011;34170;54.364;18.582;2023-09-30T04:17:58;6.93;;;1.48;;
48363;SDS011;34170;54.364;18.582;2023-09-30T04:20:26;4.05;;;1.08;;
48363;SDS011;34170;54.364;18.582;2023-09-30T04:22:54;4.00;;;0.98;;
48363;SDS011;34170;54.364;18.582;2023-09-30T04:25:25;2.83;;;0.82;;
48363;SDS011;34170;54.364;18.582;2023-09-30T04:27:53;3.05;;;1.30;;
48363;SDS011;34170;54.364;18.582;2023-09-30T04:30:21;6.28;;;1.50;;
48363;SDS011;34170;54.364;18.582;2023-09-30T04:32:50;5.80;;;1.05;;
48363;SDS011;34170;54.364;18.582;2023-09-30T04:35:18;6.35;;;1.48;;
48363;SDS011;34170;54.364;18.582;2023-09-30T04:37:45;5.63;;;1.13;;
48363;SDS011;34170;54.364;18.582;2023-09-30T04:40:13;10.57;;;1.60;;
48363;SDS011;34170;54.364;18.582;2023-09-30T04:42:49;5.38;;;1.55;;
48363;SDS011;34170;54.364;18.582;2023-09-30T04:45:17;5.13;;;1.25;;
48363;SDS011;34170;54.364;18.582;2023-09-30T04:47:47;9.02;;;1.42;;
48363;SDS011;34170;54.364;18.582;2023-09-30T04:50:17;4.65;;;1.40;;
48363;SDS011;34170;54.364;18.582;2023-09-30T04:52:44;11.48;;;1.90;;
48363;SDS011;34170;54.364;18.582;2023-09-30T04:55:13;5.93;;;1.38;;
48363;SDS011;34170;54.364;18.582;2023-09-30T04:57:44;6.20;;;1.60;;
48363;SDS011;34170;54.364;18.582;2023-09-30T05:00:20;7.40;;;1.80;;
48363;SDS011;34170;54.364;18.582;2023-09-30T05:02:54;6.97;;;1.70;;
48363;SDS011;34170;54.364;18.582;2023-09-30T05:05:23;9.38;;;2.10;;
48363;SDS011;34170;54.364;18.582;2023-09-30T05:07:50;11.35;;;1.77;;
48363;SDS011;34170;54.364;18.582;2023-09-30T05:10:18;9.50;;;2.30;;
48363;SDS011;34170;54.364;18.582;2023-09-30T05:12:46;16.30;;;2.63;;
48363;SDS011;34170;54.364;18.582;2023-09-30T05:15:15;10.35;;;2.28;;
48363;SDS011;34170;54.364;18.582;2023-09-30T05:17:44;10.55;;;2.40;;
48363;SDS011;34170;54.364;18.582;2023-09-30T05:20:14;12.45;;;2.20;;
48363;SDS011;34170;54.364;18.582;2023-09-30T05:22:47;11.35;;;2.10;;
48363;SDS011;34170;54.364;18.582;2023-09-30T05:25:16;8.32;;;1.92;;
48363;SDS011;34170;54.364;18.582;2023-09-30T05:27:45;13.98;;;2.55;;
48363;SDS011;34170;54.364;18.582;2023-09-30T05:32:46;11.85;;;3.35;;
48363;SDS011;34170;54.364;18.582;2023-09-30T05:35:14;8.07;;;2.35;;
48363;SDS011;34170;54.364;18.582;2023-09-30T05:37:45;7.32;;;2.28;;
48363;SDS011;34170;54.364;18.582;2023-09-30T05:40:13;13.52;;;3.05;;
48363;SDS011;34170;54.364;18.582;2023-09-30T05:42:51;9.00;;;2.60;;
48363;SDS011;34170;54.364;18.582;2023-09-30T05:45:22;11.55;;;2.85;;
48363;SDS011;34170;54.364;18.582;2023-09-30T05:47:50;9.07;;;2.08;;
48363;SDS011;34170;54.364;18.582;2023-09-30T05:55:23;8.65;;;2.20;;
48363;SDS011;34170;54.364;18.582;2023-09-30T05:57:53;12.85;;;3.45;;
48363;SDS011;34170;54.364;18.582;2023-09-30T06:00:22;10.73;;;2.10;;
48363;SDS011;34170;54.364;18.582;2023-09-30T06:02:51;9.48;;;2.33;;
48363;SDS011;34170;54.364;18.582;2023-09-30T06:05:19;7.75;;;2.17;;
48363;SDS011;34170;54.364;18.582;2023-09-30T06:07:47;10.60;;;2.58;;
48363;SDS011;34170;54.364;18.582;2023-09-30T06:10:14;8.32;;;2.83;;
48363;SDS011;34170;54.364;18.582;2023-09-30T06:12:43;9.73;;;2.55;;
48363;SDS011;34170;54.364;18.582;2023-09-30T06:15:10;7.97;;;2.72;;
48363;SDS011;34170;54.364;18.582;2023-09-30T06:17:38;7.85;;;2.38;;
48363;SDS011;34170;54.364;18.582;2023-09-30T06:20:06;8.15;;;2.47;;
48363;SDS011;34170;54.364;18.582;2023-09-30T06:22:46;9.07;;;2.20;;
48363;SDS011;34170;54.364;18.582;2023-09-30T06:25:16;9.13;;;2.42;;
48363;SDS011;34170;54.364;18.582;2023-09-30T06:27:45;9.55;;;3.13;;
48363;SDS011;34170;54.364;18.582;2023-09-30T06:30:14;7.32;;;2.00;;
48363;SDS011;34170;54.364;18.582;2023-09-30T06:32:43;10.20;;;2.92;;
48363;SDS011;34170;54.364;18.582;2023-09-30T06:35:12;9.20;;;2.70;;
48363;SDS011;34170;54.364;18.582;2023-09-30T06:37:40;7.38;;;2.63;;
48363;SDS011;34170;54.364;18.582;2023-09-30T06:40:09;7.78;;;2.80;;
48363;SDS011;34170;54.364;18.582;2023-09-30T06:42:40;8.95;;;2.63;;
48363;SDS011;34170;54.364;18.582;2023-09-30T06:45:08;8.20;;;3.03;;
48363;SDS011;34170;54.364;18.582;2023-09-30T06:47:37;9.13;;;2.80;;
48363;SDS011;34170;54.364;18.582;2023-09-30T06:50:10;8.50;;;2.40;;
48363;SDS011;34170;54.364;18.582;2023-09-30T06:52:40;12.00;;;3.00;;
48363;SDS011;34170;54.364;18.582;2023-09-30T06:55:09;6.72;;;2.10;;
48363;SDS011;34170;54.364;18.582;2023-09-30T06:57:38;8.02;;;2.67;;
48363;SDS011;34170;54.364;18.582;2023-09-30T07:00:11;8.10;;;2.35;;
48363;SDS011;34170;54.364;18.582;2023-09-30T07:02:41;6.18;;;2.10;;
48363;SDS011;34170;54.364;18.582;2023-09-30T07:05:12;5.68;;;2.00;;
48363;SDS011;34170;54.364;18.582;2023-09-30T07:07:41;5.72;;;1.85;;
48363;SDS011;34170;54.364;18.582;2023-09-30T07:10:12;8.75;;;2.20;;
48363;SDS011;34170;54.364;18.582;2023-09-30T07:12:41;8.20;;;2.20;;
48363;SDS011;34170;54.364;18.582;2023-09-30T07:15:09;8.85;;;2.65;;
48363;SDS011;34170;54.364;18.582;2023-09-30T07:17:38;10.30;;;2.65;;
48363;SDS011;34170;54.364;18.582;2023-09-30T07:20:10;6.50;;;2.28;;
48363;SDS011;34170;54.364;18.582;2023-09-30T07:22:38;10.07;;;2.95;;
48363;SDS011;34170;54.364;18.582;2023-09-30T07:25:08;5.75;;;2.35;;
48363;SDS011;34170;54.364;18.582;2023-09-30T07:27:36;10.30;;;3.15;;
48363;SDS011;34170;54.364;18.582;2023-09-30T07:30:04;6.55;;;2.17;;
48363;SDS011;34170;54.364;18.582;2023-09-30T07:32:34;8.68;;;2.15;;
48363;SDS011;34170;54.364;18.582;2023-09-30T07:35:02;7.32;;;2.10;;
48363;SDS011;34170;54.364;18.582;2023-09-30T07:37:30;6.82;;;2.20;;
48363;SDS011;34170;54.364;18.582;2023-09-30T07:39:58;4.60;;;1.88;;
48363;SDS011;34170;54.364;18.582;2023-09-30T07:42:27;8.52;;;2.47;;
48363;SDS011;34170;54.364;18.582;2023-09-30T07:44:54;8.75;;;2.45;;
48363;SDS011;34170;54.364;18.582;2023-09-30T07:47:22;8.60;;;2.28;;
48363;SDS011;34170;54.364;18.582;2023-09-30T07:49:50;6.45;;;2.25;;
48363;SDS011;34170;54.364;18.582;2023-09-30T07:52:18;8.63;;;2.15;;
48363;SDS011;34170;54.364;18.582;2023-09-30T07:54:46;7.47;;;2.45;;
48363;SDS011;34170;54.364;18.582;2023-09-30T07:57:14;5.82;;;1.95;;
48363;SDS011;34170;54.364;18.582;2023-09-30T07:59:42;8.10;;;2.45;;
48363;SDS011;34170;54.364;18.582;2023-09-30T08:02:09;6.13;;;2.35;;
48363;SDS011;34170;54.364;18.582;2023-09-30T08:04:37;6.53;;;1.63;;
48363;SDS011;34170;54.364;18.582;2023-09-30T08:07:06;9.05;;;2.25;;
48363;SDS011;34170;54.364;18.582;2023-09-30T08:09:33;7.43;;;2.03;;
48363;SDS011;34170;54.364;18.582;2023-09-30T08:12:01;8.23;;;2.00;;
48363;SDS011;34170;54.364;18.582;2023-09-30T08:14:29;9.10;;;2.60;;
48363;SDS011;34170;54.364;18.582;2023-09-30T08:16:56;11.32;;;2.50;;
48363;SDS011;34170;54.364;18.582;2023-09-30T08:19:24;10.48;;;2.38;;
48363;SDS011;34170;54.364;18.582;2023-09-30T08:21:52;6.88;;;2.10;;
48363;SDS011;34170;54.364;18.582;2023-09-30T08:24:19;9.13;;;2.28;;
48363;SDS011;34170;54.364;18.582;2023-09-30T08:26:47;7.28;;;1.80;;
48363;SDS011;34170;54.364;18.582;2023-09-30T08:29:15;6.45;;;2.22;;
48363;SDS011;34170;54.364;18.582;2023-09-30T08:31:43;4.78;;;1.70;;
48363;SDS011;34170;54.364;18.582;2023-09-30T08:34:11;5.57;;;1.50;;
48363;SDS011;34170;54.364;18.582;2023-09-30T08:36:40;6.53;;;1.75;;
48363;SDS011;34170;54.364;18.582;2023-09-30T08:39:09;4.60;;;1.42;;
48363;SDS011;34170;54.364;18.582;2023-09-30T08:41:40;5.03;;;1.80;;
48363;SDS011;34170;54.364;18.582;2023-09-30T08:44:11;4.43;;;1.42;;
48363;SDS011;34170;54.364;18.582;2023-09-30T08:46:40;7.30;;;2.10;;
48363;SDS011;34170;54.364;18.582;2023-09-30T08:49:08;7.28;;;1.95;;
48363;SDS011;34170;54.364;18.582;2023-09-30T08:51:40;5.88;;;1.70;;
48363;SDS011;34170;54.364;18.582;2023-09-30T08:54:08;6.00;;;1.88;;
48363;SDS011;34170;54.364;18.582;2023-09-30T08:56:35;9.57;;;1.50;;
48363;SDS011;34170;54.364;18.582;2023-09-30T08:59:07;11.38;;;1.80;;
48363;SDS011;34170;54.364;18.582;2023-09-30T09:01:37;7.80;;;1.75;;
48363;SDS011;34170;54.364;18.582;2023-09-30T09:04:06;10.82;;;1.90;;
48363;SDS011;34170;54.364;18.582;2023-09-30T09:06:34;6.25;;;1.60;;
48363;SDS011;34170;54.364;18.582;2023-09-30T09:11:46;6.15;;;1.83;;
48363;SDS011;34170;54.364;18.582;2023-09-30T09:14:14;4.72;;;1.52;;
48363;SDS011;34170;54.364;18.582;2023-09-30T09:16:52;6.85;;;1.88;;
48363;SDS011;34170;54.364;18.582;2023-09-30T09:19:21;7.50;;;1.52;;
48363;SDS011;34170;54.364;18.582;2023-09-30T09:21:59;7.80;;;1.60;;
48363;SDS011;34170;54.364;18.582;2023-09-30T09:24:32;6.18;;;1.13;;
48363;SDS011;34170;54.364;18.582;2023-09-30T09:27:04;7.50;;;1.67;;
48363;SDS011;34170;54.364;18.582;2023-09-30T09:29:35;6.38;;;1.35;;
48363;SDS011;34170;54.364;18.582;2023-09-30T09:32:07;6.72;;;2.10;;
48363;SDS011;34170;54.364;18.582;2023-09-30T09:34:59;6.53;;;1.65;;
48363;SDS011;34170;54.364;18.582;2023-09-30T09:37:30;3.92;;;1.40;;
48363;SDS011;34170;54.364;18.582;2023-09-30T09:39:59;6.38;;;1.88;;
48363;SDS011;34170;54.364;18.582;2023-09-30T09:42:28;5.47;;;2.00;;
48363;SDS011;34170;54.364;18.582;2023-09-30T09:44:57;6.85;;;1.45;;
48363;SDS011;34170;54.364;18.582;2023-09-30T09:49:57;8.48;;;1.90;;
48363;SDS011;34170;54.364;18.582;2023-09-30T09:52:25;8.57;;;1.30;;
48363;SDS011;34170;54.364;18.582;2023-09-30T09:54:55;5.68;;;1.45;;
48363;SDS011;34170;54.364;18.582;2023-09-30T09:57:25;6.28;;;1.17;;
48363;SDS011;34170;54.364;18.582;2023-09-30T09:59:54;5.68;;;1.40;;
48363;SDS011;34170;54.364;18.582;2023-09-30T10:02:26;4.63;;;1.38;;
48363;SDS011;34170;54.364;18.582;2023-09-30T10:04:55;7.55;;;2.10;;
48363;SDS011;34170;54.364;18.582;2023-09-30T10:07:29;6.22;;;1.60;;
48363;SDS011;34170;54.364;18.582;2023-09-30T10:10:02;5.72;;;1.85;;
48363;SDS011;34170;54.364;18.582;2023-09-30T10:12:38;5.05;;;1.13;;
48363;SDS011;34170;54.364;18.582;2023-09-30T10:17:59;5.95;;;1.60;;
48363;SDS011;34170;54.364;18.582;2023-09-30T10:20:30;5.30;;;1.75;;
48363;SDS011;34170;54.364;18.582;2023-09-30T10:25:48;7.50;;;1.95;;
48363;SDS011;34170;54.364;18.582;2023-09-30T10:31:42;6.88;;;1.33;;
48363;SDS011;34170;54.364;18.582;2023-09-30T10:34:20;6.85;;;1.80;;
48363;SDS011;34170;54.364;18.582;2023-09-30T10:36:48;6.05;;;1.48;;
48363;SDS011;34170;54.364;18.582;2023-09-30T10:39:53;6.25;;;1.80;;
48363;SDS011;34170;54.364;18.582;2023-09-30T10:50:57;7.53;;;1.77;;
48363;SDS011;34170;54.364;18.582;2023-09-30T10:53:28;7.60;;;1.98;;
48363;SDS011;34170;54.364;18.582;2023-09-30T10:55:56;6.25;;;1.63;;
48363;SDS011;34170;54.364;18.582;2023-09-30T10:58:41;7.57;;;1.75;;
48363;SDS011;34170;54.364;18.582;2023-09-30T11:01:13;6.97;;;1.67;;
48363;SDS011;34170;54.364;18.582;2023-09-30T11:03:43;8.73;;;1.88;;
48363;SDS011;34170;54.364;18.582;2023-09-30T11:06:14;7.97;;;2.13;;
48363;SDS011;34170;54.364;18.582;2023-09-30T11:08:54;8.95;;;2.75;;
48363;SDS011;34170;54.364;18.582;2023-09-30T11:11:33;11.73;;;2.00;;
48363;SDS011;34170;54.364;18.582;2023-09-30T11:14:25;12.60;;;2.20;;
48363;SDS011;34170;54.364;18.582;2023-09-30T11:16:58;9.32;;;2.15;;
48363;SDS011;34170;54.364;18.582;2023-09-30T11:19:46;7.75;;;2.30;;
48363;SDS011;34170;54.364;18.582;2023-09-30T11:22:15;7.45;;;1.85;;
48363;SDS011;34170;54.364;18.582;2023-09-30T11:24:42;11.30;;;2.05;;
48363;SDS011;34170;54.364;18.582;2023-09-30T11:27:11;7.85;;;2.15;;
48363;SDS011;34170;54.364;18.582;2023-09-30T11:29:48;8.55;;;2.20;;
48363;SDS011;34170;54.364;18.582;2023-09-30T11:32:26;10.75;;;1.95;;
48363;SDS011;34170;54.364;18.582;2023-09-30T11:34:56;10.05;;;2.05;;
48363;SDS011;34170;54.364;18.582;2023-09-30T11:37:30;7.57;;;1.98;;
48363;SDS011;34170;54.364;18.582;2023-09-30T11:40:08;5.47;;;1.30;;
48363;SDS011;34170;54.364;18.582;2023-09-30T11:42:37;9.90;;;2.03;;
48363;SDS011;34170;54.364;18.582;2023-09-30T11:45:20;9.77;;;1.70;;
48363;SDS011;34170;54.364;18.582;2023-09-30T11:47:51;5.88;;;1.30;;
48363;SDS011;34170;54.364;18.582;2023-09-30T11:50:19;7.10;;;1.95;;
48363;SDS011;34170;54.364;18.582;2023-09-30T11:52:47;8.10;;;1.92;;
48363;SDS011;34170;54.364;18.582;2023-09-30T11:55:14;8.50;;;2.05;;
48363;SDS011;34170;54.364;18.582;2023-09-30T11:57:44;12.00;;;1.98;;
48363;SDS011;34170;54.364;18.582;2023-09-30T12:00:11;8.35;;;1.52;;
48363;SDS011;34170;54.364;18.582;2023-09-30T12:02:41;9.82;;;1.70;;
48363;SDS011;34170;54.364;18.582;2023-09-30T12:05:09;7.10;;;1.45;;
48363;SDS011;34170;54.364;18.582;2023-09-30T12:07:38;8.15;;;2.00;;
48363;SDS011;34170;54.364;18.582;2023-09-30T12:10:09;12.10;;;2.20;;
48363;SDS011;34170;54.364;18.582;2023-09-30T12:12:37;6.68;;;1.80;;
48363;SDS011;34170;54.364;18.582;2023-09-30T12:15:07;8.57;;;1.92;;
48363;SDS011;34170;54.364;18.582;2023-09-30T12:17:36;9.80;;;2.58;;
48363;SDS011;34170;54.364;18.582;2023-09-30T12:20:06;7.03;;;1.33;;
48363;SDS011;34170;54.364;18.582;2023-09-30T12:22:34;7.30;;;1.48;;
48363;SDS011;34170;54.364;18.582;2023-09-30T12:25:04;9.15;;;2.35;;
48363;SDS011;34170;54.364;18.582;2023-09-30T12:27:32;10.50;;;1.85;;
48363;SDS011;34170;54.364;18.582;2023-09-30T12:29:59;9.05;;;1.70;;
48363;SDS011;34170;54.364;18.582;2023-09-30T12:32:27;12.32;;;2.10;;
48363;SDS011;34170;54.364;18.582;2023-09-30T12:34:55;8.18;;;1.75;;
48363;SDS011;34170;54.364;18.582;2023-09-30T12:37:23;9.18;;;2.13;;
48363;SDS011;34170;54.364;18.582;2023-09-30T12:39:50;8.30;;;1.60;;
48363;SDS011;34170;54.364;18.582;2023-09-30T12:42:19;7.60;;;1.63;;
48363;SDS011;34170;54.364;18.582;2023-09-30T12:44:46;7.10;;;1.45;;
48363;SDS011;34170;54.364;18.582;2023-09-30T12:47:14;11.43;;;2.08;;
48363;SDS011;34170;54.364;18.582;2023-09-30T12:49:41;7.75;;;1.95;;
48363;SDS011;34170;54.364;18.582;2023-09-30T12:52:10;7.90;;;1.77;;
48363;SDS011;34170;54.364;18.582;2023-09-30T12:54:37;7.03;;;1.52;;
48363;SDS011;34170;54.364;18.582;2023-09-30T12:57:05;6.65;;;1.70;;
48363;SDS011;34170;54.364;18.582;2023-09-30T12:59:34;11.77;;;2.00;;
48363;SDS011;34170;54.364;18.582;2023-09-30T13:02:02;6.82;;;1.65;;
48363;SDS011;34170;54.364;18.582;2023-09-30T13:04:32;6.28;;;1.40;;
48363;SDS011;34170;54.364;18.582;2023-09-30T13:07:00;6.63;;;1.48;;
48363;SDS011;34170;54.364;18.582;2023-09-30T13:09:27;6.45;;;1.30;;
48363;SDS011;34170;54.364;18.582;2023-09-30T13:11:55;7.15;;;1.70;;
48363;SDS011;34170;54.364;18.582;2023-09-30T13:14:27;5.43;;;1.42;;
48363;SDS011;34170;54.364;18.582;2023-09-30T13:16:55;8.00;;;1.75;;
48363;SDS011;34170;54.364;18.582;2023-09-30T13:19:23;7.65;;;2.00;;
48363;SDS011;34170;54.364;18.582;2023-09-30T13:21:51;9.23;;;2.00;;
48363;SDS011;34170;54.364;18.582;2023-09-30T13:24:20;7.15;;;1.83;;
48363;SDS011;34170;54.364;18.582;2023-09-30T13:26:47;8.88;;;1.48;;
48363;SDS011;34170;54.364;18.582;2023-09-30T13:29:16;7.25;;;1.65;;
48363;SDS011;34170;54.364;18.582;2023-09-30T13:31:44;10.43;;;1.95;;
48363;SDS011;34170;54.364;18.582;2023-09-30T13:34:12;8.00;;;2.03;;
48363;SDS011;34170;54.364;18.582;2023-09-30T13:36:39;7.63;;;1.42;;
48363;SDS011;34170;54.364;18.582;2023-09-30T13:39:07;8.18;;;1.75;;
48363;SDS011;34170;54.364;18.582;2023-09-30T13:41:40;9.55;;;2.17;;
48363;SDS011;34170;54.364;18.582;2023-09-30T13:44:07;13.27;;;1.70;;
48363;SDS011;34170;54.364;18.582;2023-09-30T13:46:35;21.15;;;2.63;;
48363;SDS011;34170;54.364;18.582;2023-09-30T13:49:03;13.98;;;2.30;;
48363;SDS011;34170;54.364;18.582;2023-09-30T13:51:31;8.27;;;1.58;;
48363;SDS011;34170;54.364;18.582;2023-09-30T13:53:58;12.18;;;1.80;;
48363;SDS011;34170;54.364;18.582;2023-09-30T13:56:26;11.27;;;2.30;;
48363;SDS011;34170;54.364;18.582;2023-09-30T13:58:55;6.25;;;1.25;;
48363;SDS011;34170;54.364;18.582;2023-09-30T14:01:25;11.32;;;1.75;;
48363;SDS011;34170;54.364;18.582;2023-09-30T14:03:54;10.05;;;1.58;;
48363;SDS011;34170;54.364;18.582;2023-09-30T14:06:24;9.67;;;1.97;;
48363;SDS011;34170;54.364;18.582;2023-09-30T14:08:52;8.02;;;1.88;;
48363;SDS011;34170;54.364;18.582;2023-09-30T14:11:20;7.68;;;2.13;;
48363;SDS011;34170;54.364;18.582;2023-09-30T14:13:47;9.55;;;2.25;;
48363;SDS011;34170;54.364;18.582;2023-09-30T14:16:16;7.32;;;1.42;;
48363;SDS011;34170;54.364;18.582;2023-09-30T14:18:44;8.05;;;1.85;;
48363;SDS011;34170;54.364;18.582;2023-09-30T14:21:12;7.55;;;1.83;;
48363;SDS011;34170;54.364;18.582;2023-09-30T14:23:40;10.52;;;2.13;;
48363;SDS011;34170;54.364;18.582;2023-09-30T14:26:08;8.82;;;1.52;;
48363;SDS011;34170;54.364;18.582;2023-09-30T14:28:38;10.30;;;2.10;;
48363;SDS011;34170;54.364;18.582;2023-09-30T14:31:06;7.10;;;1.58;;
48363;SDS011;34170;54.364;18.582;2023-09-30T14:33:34;10.02;;;1.77;;
48363;SDS011;34170;54.364;18.582;2023-09-30T14:36:03;12.02;;;2.13;;
48363;SDS011;34170;54.364;18.582;2023-09-30T14:38:32;10.30;;;2.70;;
48363;SDS011;34170;54.364;18.582;2023-09-30T14:41:01;9.20;;;1.98;;
48363;SDS011;34170;54.364;18.582;2023-09-30T14:43:28;8.60;;;2.35;;
48363;SDS011;34170;54.364;18.582;2023-09-30T14:45:56;8.25;;;2.10;;
48363;SDS011;34170;54.364;18.582;2023-09-30T14:48:24;8.35;;;1.65;;
48363;SDS011;34170;54.364;18.582;2023-09-30T14:50:51;8.85;;;2.35;;
48363;SDS011;34170;54.364;18.582;2023-09-30T14:53:19;9.20;;;1.83;;
48363;SDS011;34170;54.364;18.582;2023-09-30T14:55:47;12.05;;;2.03;;
48363;SDS011;34170;54.364;18.582;2023-09-30T14:58:15;9.48;;;2.00;;
48363;SDS011;34170;54.364;18.582;2023-09-30T15:00:43;13.82;;;2.17;;
48363;SDS011;34170;54.364;18.582;2023-09-30T15:03:10;9.55;;;1.67;;
48363;SDS011;34170;54.364;18.582;2023-09-30T15:05:38;7.97;;;1.83;;
48363;SDS011;34170;54.364;18.582;2023-09-30T15:08:07;10.48;;;2.13;;
48363;SDS011;34170;54.364;18.582;2023-09-30T15:10:35;9.18;;;2.05;;